Data for 12/03/2010

Time Sea-Level Adjusted Pressure Absolute Pressure Temperature Relative Humidity Dew Point   
(mb) (inHg) (mb) (inHg) (C) (F) (%) (C) (F)
00:05 1011 29.85 840 24.81 -1.4 29.5 97 -1.8 28.8
00:10 1011 29.85 840 24.81 -1.3 29.7 97 -1.7 29
00:15 1011 29.85 840 24.81 -1.3 29.7 97 -1.7 29
00:20 1011 29.85 840 24.81 -1.2 29.8 97 -1.7 29
00:25 1011 29.85 840 24.81 -1.3 29.7 97 -1.7 28.9
00:30 1011 29.85 840 24.81 -1.3 29.7 96 -1.8 28.8
00:35 1011 29.85 840 24.81 -1.3 29.7 97 -1.7 28.9
00:40 1011 29.85 840 24.81 -1.2 29.9 97 -1.7 29
00:45 1011 29.85 840 24.81 -1.1 30.1 97 -1.5 29.2
00:50 1011 29.85 840 24.81 -1 30.3 97 -1.5 29.4
00:55 1011 29.85 840 24.81 -0.9 30.5 96 -1.4 29.5
01:00 1011 29.85 840 24.81 -0.9 30.4 95 -1.6 29.1
01:05 1011 29.85 840 24.81 -1.1 30 95 -1.8 28.8
01:10 1011 29.85 840 24.81 -1.4 29.6 96 -1.9 28.6
01:15 1011 29.85 840 24.81 -1.5 29.4 96 -2 28.5
01:20 1011 29.85 840 24.81 -1.4 29.4 97 -1.9 28.6
01:25 1011 29.85 840 24.81 -1.4 29.5 97 -1.8 28.7
01:30 1011 29.85 840 24.81 -1.2 29.8 97 -1.6 29
01:35 1011 29.85 840 24.81 -1.1 30.1 97 -1.5 29.3
01:40 1011 29.85 840 24.81 -0.9 30.3 97 -1.4 29.5
01:45 1011 29.85 840 24.81 -0.7 30.7 96 -1.2 29.8
01:50 1011 29.85 840 24.81 -0.7 30.7 96 -1.3 29.7
01:55 1011 29.85 841 24.83 -0.7 30.7 96 -1.4 29.6
02:00 1011 29.85 841 24.83 -0.8 30.6 96 -1.4 29.5
02:05 1012 29.88 841 24.83 -0.8 30.6 96 -1.4 29.5
02:10 1012 29.88 841 24.83 -0.8 30.6 96 -1.4 29.5
02:15 1012 29.88 841 24.83 -0.7 30.7 96 -1.3 29.6
02:20 1012 29.88 841 24.83 -0.7 30.7 96 -1.3 29.7
02:25 1012 29.88 841 24.83 -0.7 30.7 96 -1.2 29.8
02:30 1012 29.88 841 24.83 -0.8 30.5 96 -1.3 29.6
02:35 1012 29.88 841 24.83 -0.8 30.5 97 -1.2 29.8
02:40 1012 29.88 841 24.83 -0.8 30.6 97 -1.2 29.9
02:45 1012 29.88 841 24.83 -0.8 30.6 97 -1.1 29.9
02:50 1012 29.88 842 24.86 -0.7 30.7 97 -1.1 30
02:55 1012 29.88 842 24.86 -0.8 30.6 97 -1.1 29.9
03:00 1013 29.91 842 24.86 -0.8 30.6 97 -1.1 29.9
03:05 1013 29.91 842 24.86 -0.8 30.6 98 -1.1 30
03:10 1013 29.91 842 24.86 -0.7 30.7 98 -1.1 30.1
03:15 1013 29.91 842 24.86 -0.8 30.6 98 -1.1 30
03:20 1013 29.91 842 24.86 -0.8 30.6 98 -1.1 30.1
03:25 1013 29.91 842 24.86 -0.7 30.7 98 -1 30.1
03:30 1013 29.91 842 24.86 -0.7 30.7 98 -1 30.2
03:35 1013 29.91 842 24.86 -0.7 30.8 98 -1 30.3
03:40 1013 29.91 842 24.86 -0.6 30.9 98 -0.9 30.4
03:45 1013 29.91 842 24.86 -0.6 31 98 -0.8 30.5
03:50 1013 29.91 842 24.86 -0.6 31 98 -0.8 30.5
03:55 1013 29.91 843 24.89 -0.6 30.9 98 -0.9 30.4
04:00 1013 29.91 843 24.89 -0.6 31 98 -0.8 30.5
04:05 1013 29.91 843 24.89 -0.6 31 98 -0.8 30.5
04:10 1013 29.91 843 24.89 -0.6 31 98 -0.8 30.5
04:15 1014 29.94 843 24.89 -0.6 31 98 -0.8 30.5
04:20 1014 29.94 843 24.89 -0.5 31 98 -0.8 30.6
04:25 1014 29.94 843 24.89 -0.5 31.2 98 -0.7 30.7
04:30 1014 29.94 843 24.89 -0.5 31.1 98 -0.7 30.7
04:35 1014 29.94 843 24.89 -0.5 31 98 -0.8 30.6
04:40 1014 29.94 843 24.89 -0.6 31 98 -0.8 30.5
04:45 1014 29.94 843 24.89 -0.6 31 98 -0.8 30.6
04:50 1014 29.94 843 24.89 -0.5 31 98 -0.8 30.6
04:55 1014 29.94 843 24.89 -0.5 31 98 -0.8 30.6
05:00 1014 29.94 843 24.89 -0.5 31.1 98 -0.8 30.6
05:05 1014 29.94 843 24.89 -0.5 31 98 -0.8 30.6
05:10 1014 29.94 843 24.89 -0.6 30.9 99 -0.8 30.5
05:15 1014 29.94 844 24.92 -0.6 30.9 99 -0.8 30.5
05:20 1014 29.94 844 24.92 -0.6 31 99 -0.8 30.6
05:25 1014 29.94 844 24.92 -0.5 31.1 98 -0.7 30.7
05:30 1015 29.97 844 24.92 -0.5 31.1 98 -0.7 30.7
05:35 1015 29.97 844 24.92 -0.5 31.1 99 -0.7 30.7
05:40 1015 29.97 844 24.92 -0.5 31 98 -0.8 30.6
05:45 1015 29.97 844 24.92 -0.6 31 99 -0.8 30.6
05:50 1015 29.97 844 24.92 -0.6 30.9 99 -0.8 30.6
05:55 1015 29.97 844 24.92 -0.6 31 99 -0.8 30.6
06:00 1015 29.97 844 24.92 -0.6 30.9 99 -0.8 30.5
06:05 1015 29.97 844 24.92 -0.6 30.9 99 -0.8 30.5
06:10 1015 29.97 844 24.92 -0.6 30.9 99 -0.8 30.6
06:15 1015 29.97 844 24.92 -0.7 30.8 99 -0.9 30.5
06:20 1015 29.97 844 24.92 -0.7 30.8 99 -0.9 30.5
06:25 1015 29.97 845 24.95 -0.7 30.8 99 -0.9 30.4
06:30 1015 29.97 845 24.95 -0.7 30.8 99 -0.9 30.4
06:35 1015 29.97 845 24.95 -0.7 30.7 99 -0.9 30.3
06:40 1015 29.97 845 24.95 -0.7 30.7 99 -0.9 30.3
06:45 1016 30 845 24.95 -0.7 30.7 99 -0.9 30.3
06:50 1016 30 845 24.95 -0.7 30.7 98 -1 30.3
06:55 1016 30 845 24.95 -0.8 30.6 99 -1 30.2
07:00 1016 30 845 24.95 -0.8 30.6 99 -1 30.2
07:05 1016 30 845 24.95 -1 30.2 99 -1.2 29.8
07:10 1016 30 845 24.95 -1.1 30.1 99 -1.3 29.7
07:15 1016 30 845 24.95 -1.1 29.9 99 -1.3 29.6
07:20 1016 30 845 24.95 -1.2 29.9 99 -1.4 29.5
07:25 1016 30 845 24.95 -1.2 29.8 99 -1.4 29.5
07:30 1016 30 845 24.95 -1.2 29.8 99 -1.4 29.4
07:35 1016 30 845 24.95 -1.3 29.7 99 -1.4 29.4
07:40 1016 30 846 24.98 -1.3 29.7 99 -1.5 29.4
07:45 1016 30 846 24.98 -1.3 29.7 99 -1.5 29.4
07:50 1017 30.03 846 24.98 -1.3 29.7 99 -1.5 29.3
07:55 1017 30.03 846 24.98 -1.3 29.7 99 -1.5 29.4
08:00 1017 30.03 846 24.98 -1.3 29.7 99 -1.5 29.3
08:05 1017 30.03 846 24.98 -1.3 29.7 99 -1.5 29.3
08:10 1017 30.03 846 24.98 -1.3 29.6 99 -1.5 29.3
08:15 1017 30.03 846 24.98 -1.3 29.6 99 -1.5 29.3
08:20 1017 30.03 846 24.98 -1.3 29.7 99 -1.5 29.3
08:25 1017 30.03 846 24.98 -1.3 29.7 99 -1.5 29.4
08:30 1017 30.03 846 24.98 -1.2 29.8 99 -1.4 29.5
08:35 1017 30.03 847 25.01 -1.2 29.9 99 -1.3 29.6
08:40 1017 30.03 847 25.01 -1.1 30 99 -1.3 29.6
08:45 1017 30.03 847 25.01 -1.1 30.1 99 -1.3 29.7
08:50 1018 30.06 847 25.01 -1 30.2 99 -1.2 29.9
08:55 1018 30.06 847 25.01 -0.9 30.3 99 -1.1 30
09:00 1018 30.06 847 25.01 -0.8 30.5 99 -1.1 30.1
09:05 1018 30.06 847 25.01 -0.9 30.4 99 -1.1 30.1
09:10 1018 30.06 847 25.01 -1 30.2 99 -1.2 29.8
09:15 1018 30.06 847 25.01 -0.9 30.3 99 -1.1 29.9
09:20 1018 30.06 847 25.01 -0.8 30.5 99 -1.1 30.1
09:25 1018 30.06 847 25.01 -0.7 30.7 98 -0.9 30.3
09:30 1018 30.06 847 25.01 -0.6 30.9 98 -0.9 30.5
09:35 1018 30.06 847 25.01 -0.5 31.1 98 -0.8 30.6
09:40 1018 30.06 848 25.04 -0.5 31.2 98 -0.7 30.7
09:45 1018 30.06 848 25.04 -0.5 31.2 98 -0.7 30.7
09:50 1019 30.09 848 25.04 -0.4 31.2 98 -0.7 30.7
09:55 1019 30.09 848 25.04 -0.4 31.3 98 -0.7 30.7
10:00 1019 30.09 848 25.04 -0.4 31.4 98 -0.7 30.8
10:05 1019 30.09 848 25.04 -0.3 31.4 98 -0.7 30.8
10:10 1019 30.09 848 25.04 -0.6 30.9 97 -1 30.1
10:15 1019 30.09 848 25.04 -1 30.2 96 -1.5 29.2
10:20 1019 30.09 848 25.04 -1.6 29.1 96 -2.1 28.1
10:25 1019 30.09 848 25.04 -1.9 28.5 96 -2.4 27.6
10:30 1019 30.09 848 25.04 -1.9 28.6 96 -2.4 27.6
10:35 1019 30.09 848 25.04 -1.9 28.6 96 -2.5 27.6
10:40 1019 30.09 849 25.07 -1.7 28.9 96 -2.3 27.9
10:45 1019 30.09 849 25.07 -1.4 29.4 96 -2 28.4
10:50 1019 30.09 849 25.07 -1.2 29.9 95 -1.8 28.8
10:55 1020 30.12 849 25.07 -0.9 30.3 95 -1.7 29
11:00 1020 30.12 849 25.07 -0.8 30.6 94 -1.6 29
11:05 1020 30.12 849 25.07 -0.7 30.8 93 -1.6 29.1
11:10 1020 30.12 849 25.07 -0.6 31 93 -1.6 29.1
11:15 1020 30.12 849 25.07 -0.5 31.1 91 -1.8 28.8
11:20 1020 30.12 849 25.07 -0.5 31.1 89 -2.1 28.3
11:25 1020 30.12 849 25.07 -0.5 31.1 89 -2.2 28.1
11:30 1020 30.12 849 25.07 -0.5 31.1 87 -2.4 27.8
11:35 1020 30.12 849 25.07 -0.5 31.1 86 -2.6 27.4
11:40 1020 30.12 849 25.07 -0.5 31 85 -2.7 27.1
11:45 1020 30.12 849 25.07 -0.6 30.8 85 -2.8 26.9
11:50 1020 30.12 849 25.07 -0.7 30.8 85 -2.9 26.8
11:55 1020 30.12 849 25.07 -0.8 30.6 84 -3.1 26.4
12:00 1020 30.12 849 25.07 -0.8 30.5 82 -3.5 25.7
12:05 1020 30.12 849 25.07 -0.8 30.5 82 -3.6 25.5
12:10 1020 30.12 849 25.07 -0.7 30.8 80 -3.7 25.4
12:15 1020 30.12 849 25.07 -0.9 30.4 81 -3.8 25.2
12:20 1020 30.12 850 25.1 -1 30.2 81 -3.8 25.1
12:25 1020 30.12 850 25.1 -0.8 30.6 80 -3.9 25
12:30 1020 30.12 850 25.1 -0.6 30.9 78 -4 24.7
12:35 1020 30.12 850 25.1 -0.5 31.1 76 -4.2 24.4
12:40 1020 30.12 850 25.1 -0.4 31.2 79 -3.7 25.4
12:45 1021 30.15 850 25.1 -0.3 31.4 79 -3.5 25.7
12:50 1021 30.15 850 25.1 -0.1 31.8 78 -3.5 25.7
12:55 1021 30.15 850 25.1 -0 32 77 -3.6 25.5
13:00 1021 30.15 850 25.1 0.2 32.4 77 -3.4 25.9
13:05 1021 30.15 850 25.1 0.3 32.6 78 -3.1 26.4
13:10 1021 30.15 850 25.1 0.7 33.3 72 -3.7 25.3
13:15 1021 30.15 850 25.1 0.8 33.4 76 -2.9 26.8
13:20 1021 30.15 850 25.1 0.8 33.5 70 -4 24.8
13:25 1021 30.15 850 25.1 0.9 33.5 72 -3.7 25.4
13:30 1021 30.15 850 25.1 0.8 33.4 70 -4.1 24.5
13:35 1021 30.15 850 25.1 0.7 33.2 66 -5 22.9
13:40 1021 30.15 850 25.1 0.7 33.3 64 -5.2 22.6
13:45 1021 30.15 850 25.1 1.2 34.1 65 -4.7 23.5
13:50 1021 30.15 850 25.1 1 33.8 65 -4.8 23.3
13:55 1021 30.15 850 25.1 0.8 33.4 67 -4.7 23.6
14:00 1021 30.15 850 25.1 0.5 32.8 68 -4.7 23.5
14:05 1021 30.15 850 25.1 0.3 32.5 69 -4.7 23.6
14:10 1021 30.15 850 25.1 0.3 32.5 75 -3.6 25.5
14:15 1021 30.15 850 25.1 0 32 75 -3.9 24.9
14:20 1021 30.15 850 25.1 -0.3 31.5 78 -3.6 25.5
14:25 1021 30.15 850 25.1 -0.6 31 80 -3.7 25.4
14:30 1021 30.15 850 25.1 -0.8 30.6 79 -3.9 24.9
14:35 1021 30.15 850 25.1 -0.7 30.7 80 -3.8 25.1
14:40 1021 30.15 850 25.1 -0.8 30.5 78 -4.1 24.5
14:45 1021 30.15 850 25.1 -0.9 30.3 77 -4.4 24
14:50 1021 30.15 850 25.1 -0.7 30.8 77 -4.3 24.3
14:55 1021 30.15 850 25.1 -0.9 30.4 79 -4.2 24.5
15:00 1021 30.15 851 25.13 -1.1 30.1 77 -4.5 23.8
15:05 1021 30.15 851 25.13 -0.9 30.4 80 -3.9 25
15:10 1021 30.15 851 25.13 -1 30.2 78 -4.4 24.1
15:15 1021 30.15 851 25.13 -0.8 30.5 78 -4.2 24.4
15:20 1022 30.18 851 25.13 -1 30.2 79 -4.3 24.3
15:25 1022 30.18 851 25.13 -1 30.1 78 -4.5 23.9
15:30 1022 30.18 851 25.13 -1 30.3 78 -4.3 24.2
15:35 1022 30.18 851 25.13 -1.1 30.1 79 -4.3 24.2
15:40 1022 30.18 851 25.13 -1.3 29.6 81 -4.2 24.4
15:45 1022 30.18 851 25.13 -1.5 29.3 80 -4.5 24
15:50 1022 30.18 851 25.13 -1.5 29.3 79 -4.7 23.6
15:55 1022 30.18 851 25.13 -1.3 29.6 78 -4.6 23.6
16:00 1022 30.18 851 25.13 -1.4 29.5 76 -5 23
16:05 1022 30.18 851 25.13 -1.3 29.6 77 -4.9 23.2
16:10 1022 30.18 851 25.13 -1.3 29.6 78 -4.7 23.5
16:15 1022 30.18 851 25.13 -1.4 29.6 78 -4.7 23.5
16:20 1022 30.18 852 25.16 -1.3 29.6 79 -4.6 23.7
16:25 1022 30.18 852 25.16 -1 30.2 77 -4.5 23.9
16:30 1022 30.18 852 25.16 -1.2 29.9 77 -4.6 23.7
16:35 1023 30.21 852 25.16 -1.4 29.5 78 -4.7 23.5
16:40 1023 30.21 852 25.16 -1.6 29.1 78 -5 23
16:45 1023 30.21 852 25.16 -1.8 28.8 79 -5 23
16:50 1023 30.21 852 25.16 -1.9 28.7 81 -4.7 23.5
16:55 1023 30.21 852 25.16 -1.9 28.5 80 -5 23
17:00 1023 30.21 852 25.16 -1.9 28.5 81 -4.8 23.4
17:05 1023 30.21 852 25.16 -1.9 28.6 80 -4.9 23.1
17:10 1023 30.21 852 25.16 -2.3 27.9 80 -5.2 22.6
17:15 1023 30.21 852 25.16 -2.6 27.3 82 -5.3 22.5
17:20 1023 30.21 852 25.16 -2.8 27 81 -5.6 21.9
17:25 1023 30.21 852 25.16 -2.7 27.1 82 -5.4 22.3
17:30 1023 30.21 852 25.16 -2.7 27.1 83 -5.2 22.6
17:35 1023 30.21 852 25.16 -2.7 27.1 82 -5.4 22.2
17:40 1023 30.21 852 25.16 -2.7 27.2 83 -5.2 22.6
17:45 1023 30.21 852 25.16 -2.7 27.2 82 -5.3 22.5
17:50 1023 30.21 852 25.16 -2.7 27.2 83 -5.2 22.7
17:55 1023 30.21 852 25.16 -2.7 27.1 83 -5.3 22.5
18:00 1023 30.21 852 25.16 -2.7 27.1 83 -5.2 22.6
18:05 1023 30.21 852 25.16 -2.8 27 80 -5.7 21.7
18:10 1023 30.21 852 25.16 -2.7 27.1 78 -6 21.3
18:15 1023 30.21 852 25.16 -2.7 27.2 80 -5.7 21.8
18:20 1023 30.21 852 25.16 -2.7 27.2 80 -5.7 21.8
18:25 1023 30.21 852 25.16 -2.6 27.2 79 -5.8 21.5
18:30 1023 30.21 852 25.16 -2.6 27.3 79 -5.8 21.6
18:35 1023 30.21 853 25.19 -2.6 27.3 79 -5.7 21.7
18:40 1023 30.21 853 25.19 -2.6 27.2 81 -5.5 22.1
18:45 1023 30.21 853 25.19 -3 26.6 83 -5.6 21.9
18:50 1023 30.21 853 25.19 -3.5 25.7 85 -5.6 21.8
18:55 1024 30.24 853 25.19 -3.8 25.2 88 -5.6 22
19:00 1024 30.24 853 25.19 -4 24.9 87 -5.8 21.6
19:05 1024 30.24 853 25.19 -4 24.7 87 -5.9 21.4
19:10 1024 30.24 853 25.19 -4 24.8 87 -5.9 21.4
19:15 1024 30.24 853 25.19 -3.8 25.1 87 -5.7 21.7
19:20 1024 30.24 853 25.19 -3.7 25.3 86 -5.7 21.7
19:25 1024 30.24 853 25.19 -3.6 25.5 86 -5.7 21.8
19:30 1024 30.24 853 25.19 -3.6 25.5 86 -5.6 21.9
19:35 1024 30.24 853 25.19 -3.6 25.5 86 -5.7 21.8
19:40 1024 30.24 853 25.19 -3.7 25.3 87 -5.5 22.1
19:45 1024 30.24 853 25.19 -3.9 24.9 87 -5.8 21.6
19:50 1024 30.24 853 25.19 -4.1 24.7 86 -6.1 21.1
19:55 1024 30.24 853 25.19 -4.2 24.5 87 -6 21.2
20:00 1024 30.24 853 25.19 -4.1 24.6 87 -5.9 21.4
20:05 1024 30.24 853 25.19 -4.1 24.7 88 -5.8 21.5
20:10 1024 30.24 853 25.19 -4.1 24.7 87 -5.9 21.4
20:15 1024 30.24 853 25.19 -4.2 24.5 87 -6 21.2
20:20 1024 30.24 853 25.19 -4.3 24.3 88 -5.9 21.4
20:25 1024 30.24 853 25.19 -4.4 24.1 88 -6 21.2
20:30 1024 30.24 853 25.19 -4.6 23.7 89 -6.2 20.9
20:35 1024 30.24 853 25.19 -4.8 23.4 90 -6.2 20.9
20:40 1024 30.24 853 25.19 -4.9 23.1 90 -6.3 20.6
20:45 1024 30.24 853 25.19 -5.1 22.8 90 -6.6 20.2
20:50 1024 30.24 853 25.19 -5.4 22.3 87 -7.2 19.1
20:55 1024 30.24 853 25.19 -5.5 22.2 87 -7.3 18.9
21:00 1024 30.24 853 25.19 -5.6 22 88 -7.3 18.8
21:05 1024 30.24 853 25.19 -5.6 21.9 87 -7.5 18.5
21:10 1024 30.24 854 25.22 -5.6 22 86 -7.5 18.4
21:15 1024 30.24 854 25.22 -5.8 21.6 85 -7.9 17.7
21:20 1024 30.24 854 25.22 -5.8 21.5 85 -8 17.6
21:25 1024 30.24 854 25.22 -5.9 21.3 85 -8 17.5
21:30 1024 30.24 854 25.22 -6 21.3 84 -8.3 17.1
21:35 1024 30.24 854 25.22 -6 21.1 84 -8.4 16.9
21:40 1024 30.24 854 25.22 -6.1 20.9 85 -8.2 17.2
21:45 1025 30.27 854 25.22 -6.2 20.8 86 -8.2 17.2
21:50 1025 30.27 854 25.22 -6.2 20.8 86 -8.2 17.2
21:55 1024 30.24 854 25.22 -6.2 20.9 86 -8.2 17.3
22:00 1024 30.24 854 25.22 -6.2 20.9 86 -8.1 17.3
22:05 1024 30.24 854 25.22 -6.1 21 86 -8.1 17.4
22:10 1024 30.24 854 25.22 -6.2 20.8 86 -8.1 17.4
22:15 1024 30.24 854 25.22 -6.4 20.5 87 -8.2 17.3
22:20 1025 30.27 854 25.22 -6.3 20.6 87 -8.2 17.2
22:25 1025 30.27 854 25.22 -6.3 20.6 87 -8.1 17.4
22:30 1025 30.27 854 25.22 -6.3 20.7 86 -8.2 17.2
22:35 1025 30.27 854 25.22 -6.2 20.8 86 -8.2 17.3
22:40 1025 30.27 854 25.22 -6.2 20.9 87 -8 17.6
22:45 1025 30.27 854 25.22 -6.2 20.9 87 -8 17.5
22:50 1025 30.27 854 25.22 -6.5 20.3 88 -8.2 17.2
22:55 1025 30.27 854 25.22 -6.7 20 87 -8.5 16.8
23:00 1025 30.27 854 25.22 -6.9 19.6 86 -8.8 16.1
23:05 1025 30.27 854 25.22 -7.2 19.1 87 -8.9 15.9
23:10 1025 30.27 854 25.22 -7.2 19.1 85 -9.3 15.3
23:15 1025 30.27 854 25.22 -7.3 18.8 85 -9.4 15
23:20 1025 30.27 854 25.22 -7.3 18.8 84 -9.6 14.8
23:25 1025 30.27 854 25.22 -7.3 18.8 83 -9.8 14.4
23:30 1025 30.27 854 25.22 -7.2 19.1 84 -9.5 14.9
23:35 1025 30.27 854 25.22 -7 19.3 85 -9.2 15.4
23:40 1025 30.27 854 25.22 -7 19.4 81 -9.7 14.6
23:45 1025 30.27 854 25.22 -7.2 19.1 85 -9.3 15.3
23:50 1025 30.27 854 25.22 -7.2 19.1 83 -9.6 14.7
23:55 1025 30.27 854 25.22 -7.5 18.6 80 -10.4 13.3
24:00 1025 30.27 854 25.22 -7.6 18.3 81 -10.3 13.4